Latest Coastal Weather Observations for Point Stuart

IDD60701

Issued at 6:41 am CST Tuesday 23 December 2014 (issued every 10 minutes, with the page automatically refreshed every 10 minutes)

About coastal observations | Map of coastal stations | Coastal observations for NT | Marine services | Other Formats
Station Details ID: 014254 Name: POINT STUART Lat: -12.24 Lon: 131.88 Height: 1.0 m
Data from the previous 72 hours. | See also: Recent months for locations in Northern Territory
Date/Time
CST
Temp

°C
Wind Pressure Rain
since 9am
mm
Weather Cloud Vis
km
Sea
Height
m
Swell
Dir
 
Speed
knots
Gust
knots
hPa Trend Height
m
Period
s
Dir
23/06:30am 27.0 E 13 22 1008.8 - 0.2 - - - - - - -
23/06:00am 27.0 SSE 6 7 1008.2 - 0.2 - - - - - - -
23/05:30am 26.8 S 4 6 1007.6 - 0.2 - - - - - - -
23/05:00am 26.9 S 6 7 1007.3 - 0.2 - - - - - - -
23/04:30am 26.8 S 5 6 1007.2 - 0.2 - - - - - - -
23/04:00am 27.2 S 5 7 1007.4 - 0.2 - - - - - - -
23/03:30am 27.4 S 5 6 1007.3 - 0.2 - - - - - - -
23/03:00am 27.3 SSW 5 7 1007.3 - 0.2 - - - - - - -
23/02:30am 27.8 WSW 5 6 1007.2 - 0.2 - - - - - - -
23/02:00am 28.7 WNW 5 6 1007.0 - 0.2 - - - - - - -
23/01:30am 28.7 NW 6 8 1006.9 - 0.2 - - - - - - -
23/01:00am 28.4 NW 6 8 1007.1 - 0.2 - - - - - - -
23/12:30am 28.7 NW 6 8 1007.5 - 0.2 - - - - - - -
23/12:00am 28.9 NW 7 9 1007.7 - 0.2 - - - - - - -
 
Date/Time
CST
Temp

°C
Wind Pressure Rain
since 9am
mm
Weather Cloud Vis
km
Sea
Height
m
Swell
Dir
 
Speed
knots
Gust
knots
hPa Trend Height
m
Period
s
Dir
22/11:30pm 28.8 NNW 6 9 1007.7 - 0.2 - - - - - - -
22/11:00pm 29.0 NNW 5 8 1007.6 - 0.2 - - - - - - -
22/10:30pm 29.2 NNW 5 7 1007.5 - 0.2 - - - - - - -
22/10:00pm 29.4 N 4 7 1007.2 - 0.2 - - - - - - -
22/09:30pm 29.2 NNW 5 7 1007.2 - 0.2 - - - - - - -
22/09:00pm 29.3 NNW 7 10 1007.2 - 0.2 - - - - - - -
22/08:30pm 29.1 NNW 6 10 1006.6 - 0.2 - - - - - - -
22/08:00pm 29.1 NNW 5 7 1006.5 - 0.2 - - - - - - -
22/07:30pm 29.3 NNW 4 7 1006.2 - 0.2 - - - - - - -
22/07:00pm 30.2 NNW 5 7 1005.8 - 0.2 - - - - - - -
22/06:30pm 31.5 NNW 5 9 1005.4 - 0.2 - - - - - - -
22/06:00pm 31.2 NW 5 7 1005.1 - 0.2 - - - - - - -
22/05:30pm 32.3 NW 7 9 1005.0 - 0.2 - - - - - - -
22/05:00pm 33.0 NW 7 10 1005.1 - 0.2 - - - - - - -
22/04:30pm 33.3 NW 5 9 1005.4 - 0.2 - - - - - - -
22/04:00pm 32.7 NW 6 7 1005.6 - 0.2 - - - - - - -
22/03:30pm 33.2 NW 6 8 1005.9 - 0.2 - - - - - - -
22/03:00pm 33.2 NW 6 9 1006.3 - 0.2 - - - - - - -
22/02:30pm 32.8 NW 5 7 1006.7 - 0.2 - - - - - - -
22/02:00pm 32.3 NW 6 8 1007.0 - 0.2 - - - - - - -
22/01:30pm 31.8 NW 6 9 1007.4 - 0.2 - - - - - - -
22/01:00pm 31.8 N 3 5 1008.0 - 0.2 - - - - - - -
22/12:30pm 31.4 NNW 5 7 1008.3 - 0.2 - - - - - - -
22/12:00pm 31.4 N 4 5 1008.4 - 0.2 - - - - - - -
22/11:30am 32.3 N 4 7 1008.4 - 0.2 - - - - - - -
22/11:00am 31.2 N 3 6 1008.6 - 0.2 - - - - - - -
22/10:30am 30.2 CALM 0 0 1008.9 - 0.0 - - - - - - -
22/10:00am 28.7 ENE 2 4 1009.2 - 0.0 - - - - - - -
22/09:30am 27.6 SSE 1 3 1009.5 - 0.0 - - - - - - -
22/09:00am 26.0 N 3 5 1009.3 - 64.6 - - - - - - -
22/08:30am 25.5 CALM 0 0 1009.1 - 64.4 - - - - - - -
22/08:00am 25.0 W 1 4 1008.5 - 64.4 - - - - - - -
22/07:30am 25.1 W 5 7 1008.7 - 64.4 - - - - - - -
22/07:00am 24.5 W 6 7 1008.6 - 64.4 - - - - - - -
22/06:30am 23.9 WNW 5 7 1008.5 - 64.4 - - - - - - -
22/06:00am 23.3 WNW 6 7 1008.1 - 63.8 - - - - - - -
22/05:30am 23.5 N 16 28 1008.5 - 51.6 - - - - - - -
22/05:29am 23.3 N 16 28 1008.4 - 49.8 - - - - - - -
22/05:28am 23.5 N 14 27 1008.2 - 47.4 - - - - - - -
22/05:24am 24.0 NE 20 27 1008.2 - 42.0 - - - - - - -
22/05:18am 25.3 E 15 25 1007.8 - 38.0 - - - - - - -
22/05:00am 25.6 SSE 4 6 1006.9 - 36.4 - - - - - - -
22/04:30am 25.0 W 1 4 1006.9 - 36.4 - - - - - - -
22/04:00am 24.4 W 8 11 1007.0 - 36.4 - - - - - - -
22/03:30am 25.3 WNW 5 9 1006.7 - 34.8 - - - - - - -
22/03:00am 26.8 SW 9 13 1006.8 - 9.4 - - - - - - -
22/02:30am 29.7 NW 8 12 1006.8 - 0.0 - - - - - - -
22/02:00am 29.7 NW 7 9 1006.9 - 0.0 - - - - - - -
22/01:30am 29.6 NW 8 10 1007.0 - 0.0 - - - - - - -
22/01:00am 29.1 NNW 5 7 1007.1 - 0.0 - - - - - - -
22/12:30am 29.3 NNW 4 6 1007.3 - 0.0 - - - - - - -
22/12:00am 29.2 NNW 4 6 1007.6 - 0.0 - - - - - - -
 
Date/Time
CST
Temp

°C
Wind Pressure Rain
since 9am
mm
Weather Cloud Vis
km
Sea
Height
m
Swell
Dir
 
Speed
knots
Gust
knots
hPa Trend Height
m
Period
s
Dir
21/11:30pm 29.2 NNW 4 6 1007.8 - 0.0 - - - - - - -
21/11:00pm 29.5 NNW 4 6 1007.6 - 0.0 - - - - - - -
21/10:30pm 29.5 NNW 5 7 1007.4 - 0.0 - - - - - - -
21/10:00pm 29.1 NNW 5 7 1007.2 - 0.0 - - - - - - -
21/09:30pm 28.8 NW 5 7 1006.9 - 0.0 - - - - - - -
21/09:00pm 29.0 NW 5 7 1006.6 - 0.0 - - - - - - -
21/08:30pm 29.2 NW 5 6 1006.3 - 0.0 - - - - - - -
21/08:00pm 29.4 WNW 4 5 1006.1 - 0.0 - - - - - - -
21/07:30pm 29.9 NW 5 6 1005.5 - 0.0 - - - - - - -
21/07:00pm 31.2 NNW 4 6 1004.9 - 0.0 - - - - - - -
21/06:30pm 32.7 NW 5 7 1004.5 - 0.0 - - - - - - -
21/06:00pm 33.4 NW 6 8 1004.4 - 0.0 - - - - - - -
21/05:30pm 33.7 NW 6 8 1004.3 - 0.0 - - - - - - -
21/05:00pm 33.9 NNW 6 9 1004.2 - 0.0 - - - - - - -
21/04:30pm 33.5 NNW 6 9 1004.5 - 0.0 - - - - - - -
21/04:00pm 33.5 NNW 7 10 1004.8 - 0.0 - - - - - - -
21/03:30pm 33.7 NNW 6 10 1005.3 - 0.0 - - - - - - -
21/03:00pm 33.9 NNW 5 8 1005.7 - 0.0 - - - - - - -
21/02:30pm 34.0 NW 3 7 1006.2 - 0.0 - - - - - - -
21/02:00pm 33.5 NW 5 8 1006.7 - 0.0 - - - - - - -
21/01:30pm 33.0 WNW 6 8 1007.1 - 0.0 - - - - - - -
21/01:00pm 32.2 WNW 4 7 1007.7 - 0.0 - - - - - - -
21/12:30pm 32.2 NNW 4 6 1008.0 - 0.0 - - - - - - -
21/12:00pm 31.6 NW 3 6 1008.4 - 0.0 - - - - - - -
21/11:30am 30.6 NW 4 8 1008.9 - 0.0 - - - - - - -
21/11:00am 30.0 ESE 4 6 1009.4 - 0.0 - - - - - - -
21/10:30am 29.0 SE 6 9 1010.0 - 0.0 - - - - - - -
21/10:00am 28.5 SE 13 16 1010.6 - 0.0 - - - - - - -
21/09:30am 29.5 ESE 10 12 1010.3 - 0.0 - - - - - - -
21/09:00am 29.6 ESE 6 8 1010.1 - 0.0 - - - - - - -
21/08:30am 29.5 SE 5 6 1009.7 - 0.0 - - - - - - -
21/08:00am 28.5 SE 4 6 1009.0 - 0.0 - - - - - - -
21/07:30am 27.9 SE 5 7 1008.7 - 0.0 - - - - - - -
21/07:00am 27.6 ESE 5 6 1008.4 - 0.0 - - - - - - -
21/06:30am 27.5 SSW 2 4 1007.6 - 0.0 - - - - - - -
21/06:00am 27.7 SSE 5 6 1007.8 - 0.0 - - - - - - -
21/05:30am 29.3 WNW 7 8 1007.3 - 0.0 - - - - - - -
21/05:00am 29.5 NW 8 10 1007.0 - 0.0 - - - - - - -
21/04:30am 29.4 WNW 8 11 1006.6 - 0.0 - - - - - - -
21/04:00am 29.6 NW 8 11 1006.8 - 0.0 - - - - - - -
21/03:30am 29.7 NW 8 11 1006.6 - 0.0 - - - - - - -
21/03:00am 29.7 NW 10 14 1006.3 - 0.0 - - - - - - -
21/02:30am 29.9 NW 10 13 1006.4 - 0.0 - - - - - - -
21/02:00am 30.0 WNW 10 13 1006.8 - 0.0 - - - - - - -
21/01:30am 30.0 NW 10 13 1007.2 - 0.0 - - - - - - -
21/01:00am 30.1 NW 9 13 1007.6 - 0.0 - - - - - - -
21/12:30am 30.3 NW 9 12 1007.8 - 0.0 - - - - - - -
21/12:00am 30.1 NNW 10 14 1008.1 - 0.0 - - - - - - -
 
Date/Time
CST
Temp

°C
Wind Pressure Rain
since 9am
mm
Weather Cloud Vis
km
Sea
Height
m
Swell
Dir
 
Speed
knots
Gust
knots
hPa Trend Height
m
Period
s
Dir
20/11:30pm 30.3 NNW 8 11 1008.2 - 0.0 - - - - - - -
20/11:00pm 30.3 NNW 7 11 1008.1 - 0.0 - - - - - - -
20/10:30pm 30.5 N 6 10 1007.6 - 0.0 - - - - - - -
20/10:00pm 30.3 NNW 6 9 1007.4 - 0.0 - - - - - - -
20/09:30pm 30.2 N 5 8 1007.2 - 0.0 - - - - - - -
20/09:00pm 30.1 N 5 8 1006.7 - 0.0 - - - - - - -
20/08:30pm 30.1 NNW 5 7 1006.5 - 0.0 - - - - - - -
20/08:00pm 30.4 NNW 5 8 1006.3 - 0.0 - - - - - - -
20/07:30pm 30.6 N 5 6 1005.7 - 0.0 - - - - - - -
20/07:00pm 31.0 N 6 9 1005.2 - 0.0 - - - - - - -
20/06:30pm 31.6 NNW 6 8 1004.9 - 0.0 - - - - - - -
20/06:00pm 32.6 NNW 6 8 1004.8 - 0.0 - - - - - - -
20/05:30pm 32.8 NNW 6 10 1004.6 - 0.0 - - - - - - -
20/05:00pm 34.3 NNW 6 10 1004.7 - 0.0 - - - - - - -
20/04:30pm 33.4 NNW 6 9 1004.6 - 0.0 - - - - - - -
20/04:00pm 34.2 NNW 7 10 1004.6 - 0.0 - - - - - - -
20/03:30pm 33.7 NNW 7 9 1005.1 - 0.0 - - - - - - -
20/03:00pm 34.2 NNW 8 11 1005.7 - 0.0 - - - - - - -
20/02:30pm 33.4 NNW 8 11 1006.1 - 0.0 - - - - - - -
20/02:00pm 33.8 NW 8 11 1006.5 - 0.0 - - - - - - -
20/01:30pm 33.6 NW 7 10 1007.0 - 0.0 - - - - - - -
20/01:00pm 33.1 NW 8 10 1007.8 - 0.0 - - - - - - -
20/12:30pm 34.0 WNW 7 10 1008.1 - 0.0 - - - - - - -
20/12:00pm 32.6 NW 6 9 1008.6 - 0.0 - - - - - - -
20/11:30am 32.3 NW 5 7 1008.9 - 0.0 - - - - - - -
20/11:00am 32.3 S 4 7 1009.2 - 0.0 - - - - - - -
20/10:30am 31.4 S 4 6 1009.6 - 0.0 - - - - - - -
20/10:00am 30.2 SSE 6 8 1009.9 - 0.0 - - - - - - -
20/09:30am 29.5 SSE 6 8 1010.1 - 0.0 - - - - - - -
20/09:00am 28.7 SSE 7 9 1010.0 - 18.8 - - - - - - -
20/08:30am 28.1 S 9 12 1010.2 - 18.8 - - - - - - -
20/08:00am 27.8 S 5 6 1009.6 - 18.8 - - - - - - -
20/07:30am 27.1 S 3 6 1009.4 - 18.8 - - - - - - -
20/07:00am 26.3 S 4 5 1009.5 - 18.8 - - - - - - -

Other Formats:

Comma delimited format used in spreadsheet applications
http://www.bom.gov.au/fwo/IDD60701/IDD60701.94127.axf

JavaScript Object Notation format (JSON) in row-major order
http://www.bom.gov.au/fwo/IDD60701/IDD60701.94127.json